createdAt,value
2019-01-12T00:01:28.751Z,95.10
2019-01-12T00:03:30.514Z,95.10
2019-01-12T00:05:32.424Z,95.40
2019-01-12T00:07:34.288Z,95.30
2019-01-12T00:09:36.010Z,95.70
2019-01-12T00:11:37.891Z,95.20
2019-01-12T00:13:40.139Z,94.80
2019-01-12T00:15:42.003Z,94.50
2019-01-12T00:17:43.743Z,94.20
2019-01-12T00:19:45.451Z,94.00
2019-01-12T00:21:47.287Z,94.30
2019-01-12T00:23:49.025Z,94.00
2019-01-12T00:25:50.799Z,93.90
2019-01-12T00:27:52.525Z,93.20
2019-01-12T00:29:54.271Z,93.20
2019-01-12T00:31:56.060Z,93.30
2019-01-12T00:33:57.882Z,93.60
2019-01-12T00:35:59.604Z,94.00
2019-01-12T00:38:02.210Z,92.90
2019-01-12T00:40:05.073Z,91.90
2019-01-12T00:42:07.134Z,91.90
2019-01-12T00:44:08.882Z,91.70
2019-01-12T00:46:10.656Z,91.40
2019-01-12T00:48:12.364Z,91.30
2019-01-12T00:50:15.290Z,90.70
2019-01-12T00:52:17.018Z,90.50
2019-01-12T00:54:18.750Z,90.70
2019-01-12T00:56:20.490Z,90.50
2019-01-12T00:58:22.232Z,90.50
2019-01-12T01:00:24.250Z,91.30
2019-01-12T01:02:25.999Z,91.60
2019-01-12T01:04:27.827Z,92.80
2019-01-12T01:06:29.838Z,94.40
2019-01-12T01:08:31.575Z,94.50
2019-01-12T01:10:33.487Z,93.80
2019-01-12T01:12:35.254Z,93.80
2019-01-12T01:14:37.082Z,94.30
2019-01-12T01:16:38.792Z,94.50
2019-01-12T01:18:40.522Z,94.40
2019-01-12T01:20:42.338Z,94.80
2019-01-12T01:22:44.577Z,94.70
2019-01-12T01:24:46.616Z,94.70
2019-01-12T01:26:48.478Z,95.00
2019-01-12T01:28:50.642Z,95.20
2019-01-12T01:30:52.378Z,95.10
2019-01-12T01:32:54.264Z,95.30
2019-01-12T01:34:55.976Z,95.00
2019-01-12T01:36:57.689Z,94.70
2019-01-12T01:38:59.462Z,94.50
2019-01-12T01:41:01.211Z,94.80
2019-01-12T01:43:03.030Z,95.00
2019-01-12T01:45:05.810Z,95.20
2019-01-12T01:47:07.548Z,94.80
2019-01-12T01:49:09.294Z,94.40
2019-01-12T01:51:11.030Z,94.80
2019-01-12T01:53:12.854Z,94.60
2019-01-12T01:55:14.598Z,94.50
2019-01-12T01:57:16.438Z,94.40
2019-01-12T01:59:18.270Z,94.10
2019-01-12T02:01:20.000Z,94.30
2019-01-12T02:03:22.021Z,93.50
2019-01-12T02:05:23.798Z,93.40
2019-01-12T02:07:25.714Z,92.90
2019-01-12T02:09:27.474Z,92.90
2019-01-12T02:11:29.195Z,92.90
2019-01-12T02:13:31.038Z,92.90
2019-01-12T02:15:32.915Z,92.90
2019-01-12T02:17:34.738Z,92.40
2019-01-12T02:19:36.491Z,92.70
2019-01-12T02:21:38.239Z,93.20
2019-01-12T02:23:40.083Z,93.10
2019-01-12T02:25:41.946Z,92.70
2019-01-12T02:27:43.664Z,92.50
2019-01-12T02:29:45.456Z,92.40
2019-01-12T02:31:47.171Z,92.50
2019-01-12T02:33:48.926Z,91.80
2019-01-12T02:35:51.262Z,92.00
2019-01-12T02:37:52.978Z,92.20
2019-01-12T02:39:54.722Z,92.00
2019-01-12T02:41:56.570Z,91.50
2019-01-12T02:43:58.315Z,91.10
2019-01-12T02:46:00.121Z,90.70
2019-01-12T02:48:02.399Z,90.50
2019-01-12T02:50:05.031Z,90.10
2019-01-12T02:52:06.870Z,89.40
2019-01-12T02:54:08.631Z,88.90
2019-01-12T02:56:10.342Z,88.60
2019-01-12T02:58:12.107Z,87.90
2019-01-12T03:00:16.388Z,87.60
2019-01-12T03:02:18.204Z,87.40
2019-01-12T03:04:19.952Z,87.60
2019-01-12T03:06:21.916Z,87.20
2019-01-12T03:08:23.835Z,86.80
2019-01-12T03:10:25.652Z,86.10
2019-01-12T03:12:27.802Z,85.90
2019-01-12T03:14:29.686Z,85.10
2019-01-12T03:16:31.553Z,84.30
2019-01-12T03:18:33.409Z,83.30
2019-01-12T03:20:35.415Z,82.00
2019-01-12T03:22:37.242Z,80.30
2019-01-12T03:24:39.138Z,79.80
2019-01-12T03:26:40.970Z,79.00
2019-01-12T03:28:42.703Z,78.00
2019-01-12T03:30:44.440Z,77.50
2019-01-12T03:32:49.144Z,77.30
2019-01-12T03:34:50.975Z,75.90
2019-01-12T03:36:52.803Z,74.80
2019-01-12T03:38:54.523Z,74.10
2019-01-12T03:40:56.442Z,73.20
2019-01-12T03:42:58.162Z,72.90
2019-01-12T03:44:59.896Z,72.00
2019-01-12T03:47:01.717Z,71.10
2019-01-12T03:49:03.563Z,70.80
2019-01-12T03:51:05.311Z,70.40
2019-01-12T03:53:07.133Z,70.00
2019-01-12T03:55:09.157Z,69.80
2019-01-12T03:57:11.010Z,69.80
2019-01-12T03:59:12.727Z,70.20
2019-01-12T04:01:14.571Z,69.40
2019-01-12T04:03:16.303Z,69.50
2019-01-12T04:05:18.130Z,69.70
2019-01-12T04:07:20.030Z,69.90
2019-01-12T04:09:21.764Z,70.20
2019-01-12T04:11:23.511Z,69.30
2019-01-12T04:13:25.242Z,68.80
2019-01-12T04:15:27.454Z,68.10
2019-01-12T04:17:29.290Z,67.50
2019-01-12T04:19:31.015Z,67.20
2019-01-12T04:21:32.766Z,67.30
2019-01-12T04:23:34.520Z,66.70
2019-01-12T04:25:36.342Z,66.70
2019-01-12T04:27:38.566Z,66.70
2019-01-12T04:29:40.287Z,67.50
2019-01-12T04:31:42.011Z,67.80
2019-01-12T04:33:43.758Z,67.70
2019-01-12T04:35:45.481Z,66.30
2019-01-12T04:37:47.443Z,65.50
2019-01-12T04:39:49.230Z,64.70
2019-01-12T04:41:51.751Z,64.10
2019-01-12T04:43:53.538Z,63.20
2019-01-12T04:48:05.560Z,62.40
2019-01-12T04:50:09.898Z,62.40
2019-01-12T04:52:11.623Z,61.90
2019-01-12T04:54:13.374Z,61.60
2019-01-12T04:56:15.210Z,61.10
2019-01-12T04:58:16.948Z,61.10
2019-01-12T05:00:19.160Z,61.00
2019-01-12T05:02:20.876Z,60.90
2019-01-12T05:04:22.615Z,60.70
2019-01-12T05:06:24.353Z,60.60
2019-01-12T05:08:26.082Z,60.50
2019-01-12T05:10:28.001Z,60.60
2019-01-12T05:12:29.744Z,60.70
2019-01-12T05:14:31.459Z,60.80
2019-01-12T05:16:33.185Z,60.90
2019-01-12T05:18:34.919Z,61.00
2019-01-12T05:20:36.633Z,61.20
2019-01-12T05:22:38.343Z,61.30
2019-01-12T05:24:40.077Z,61.40
2019-01-12T05:26:41.992Z,61.50
2019-01-12T05:28:43.722Z,61.60
2019-01-12T05:30:45.464Z,61.90
2019-01-12T05:32:47.182Z,62.00
2019-01-12T05:34:49.046Z,62.10
2019-01-12T05:36:50.787Z,62.20
2019-01-12T05:38:52.543Z,61.80
2019-01-12T05:40:54.272Z,61.60
2019-01-12T05:42:56.160Z,61.80
2019-01-12T05:44:57.890Z,61.50
2019-01-12T05:46:59.606Z,61.40
2019-01-12T05:49:01.362Z,61.20
2019-01-12T05:51:03.188Z,61.40
2019-01-12T05:53:04.906Z,61.30
2019-01-12T05:55:07.130Z,61.30
2019-01-12T05:57:08.858Z,61.10
2019-01-12T05:59:10.610Z,60.90
2019-01-12T06:01:12.597Z,60.80
2019-01-12T06:03:14.407Z,60.60
2019-01-12T06:05:16.226Z,60.70
2019-01-12T06:07:17.967Z,60.70
2019-01-12T06:09:19.696Z,60.40
2019-01-12T06:11:21.422Z,60.50
2019-01-12T06:13:23.174Z,60.30
2019-01-12T06:15:25.288Z,60.40
2019-01-12T06:17:27.010Z,60.20
2019-01-12T06:19:28.757Z,60.20
2019-01-12T06:21:30.811Z,60.20
2019-01-12T06:23:32.533Z,60.10
2019-01-12T06:25:34.264Z,60.00
2019-01-12T06:27:35.990Z,60.10
2019-01-12T06:29:37.723Z,60.00
2019-01-12T06:31:39.466Z,60.10
2019-01-12T06:33:41.190Z,59.90
2019-01-12T06:35:42.913Z,60.00
2019-01-12T06:37:44.847Z,59.80
2019-01-12T06:39:47.986Z,59.90
2019-01-12T06:41:49.718Z,60.00
2019-01-12T06:43:51.505Z,59.80
2019-01-12T06:45:53.217Z,59.90
2019-01-12T06:47:54.935Z,60.20
2019-01-12T06:49:56.703Z,60.00
2019-01-12T06:51:58.694Z,60.00
2019-01-12T06:54:00.430Z,60.00
2019-01-12T06:56:02.374Z,60.00
2019-01-12T06:58:04.193Z,60.00
2019-01-12T07:00:09.536Z,60.10
2019-01-12T07:02:11.480Z,60.20
2019-01-12T07:04:13.310Z,60.20
2019-01-12T07:06:15.142Z,60.30
2019-01-12T07:08:16.863Z,60.30
2019-01-12T07:10:18.700Z,60.40
2019-01-12T07:12:20.444Z,60.40
2019-01-12T07:14:22.230Z,60.70
2019-01-12T07:16:23.955Z,60.70
2019-01-12T07:18:26.074Z,60.50
2019-01-12T07:20:27.895Z,60.40
2019-01-12T07:22:29.754Z,60.50
2019-01-12T07:24:31.824Z,60.40
2019-01-12T07:26:33.567Z,60.50
2019-01-12T07:28:35.282Z,61.20
2019-01-12T07:30:37.007Z,61.30
2019-01-12T07:32:38.767Z,61.20
2019-01-12T07:34:40.522Z,61.30
2019-01-12T07:36:42.250Z,61.60
2019-01-12T07:38:44.242Z,62.50
2019-01-12T07:40:45.973Z,62.20
2019-01-12T07:42:48.039Z,62.00
2019-01-12T07:44:49.796Z,62.10
2019-01-12T07:46:51.519Z,62.10
2019-01-12T07:48:53.311Z,62.10
2019-01-12T07:50:55.287Z,62.00
2019-01-12T07:52:57.011Z,62.20
2019-01-12T07:54:58.730Z,63.90
2019-01-12T07:57:00.608Z,62.80
2019-01-12T07:59:02.431Z,63.10
2019-01-12T08:01:04.261Z,63.10
2019-01-12T08:03:06.320Z,62.40
2019-01-12T08:05:08.247Z,62.00
2019-01-12T08:07:09.962Z,61.90
2019-01-12T08:09:11.783Z,62.00
2019-01-12T08:11:13.506Z,61.80
2019-01-12T08:13:15.327Z,61.30
2019-01-12T08:15:17.393Z,61.50
2019-01-12T08:17:21.689Z,61.20
2019-01-12T08:19:23.622Z,61.00
2019-01-12T08:21:25.463Z,61.20
2019-01-12T08:23:27.418Z,61.60
2019-01-12T08:25:29.126Z,62.40
2019-01-12T08:27:31.464Z,63.00
2019-01-12T08:29:33.186Z,62.30
2019-01-12T08:31:34.906Z,62.00
2019-01-12T08:33:42.514Z,62.00
2019-01-12T08:35:47.120Z,62.80
2019-01-12T08:37:48.944Z,62.30
2019-01-12T08:39:50.674Z,62.30
2019-01-12T08:41:58.342Z,62.80
2019-01-12T08:44:00.070Z,63.00
2019-01-12T08:46:03.010Z,64.50
2019-01-12T08:48:05.112Z,63.80
2019-01-12T08:50:10.560Z,63.40
2019-01-12T08:52:12.306Z,64.00
2019-01-12T08:54:17.250Z,63.80
2019-01-12T08:56:18.972Z,64.10
2019-01-12T08:58:20.694Z,63.90
2019-01-12T09:00:22.662Z,64.90
2019-01-12T09:02:24.418Z,65.80
2019-01-12T09:04:26.506Z,64.10
2019-01-12T09:06:28.434Z,65.00
2019-01-12T09:08:30.187Z,64.50
2019-01-12T09:10:32.031Z,64.40
2019-01-12T09:12:33.864Z,63.70
2019-01-12T09:14:35.674Z,64.30
2019-01-12T09:16:37.394Z,63.90
2019-01-12T09:18:39.220Z,64.00
2019-01-12T09:20:41.058Z,63.90
2019-01-12T09:22:45.482Z,63.70
2019-01-12T09:24:47.311Z,63.80
2019-01-12T09:26:49.126Z,63.80
2019-01-12T09:28:50.855Z,63.50
2019-01-12T09:30:52.571Z,64.20
2019-01-12T09:32:54.456Z,63.90
2019-01-12T09:34:56.283Z,64.00
2019-01-12T09:36:58.449Z,64.20
2019-01-12T09:39:00.266Z,65.30
2019-01-12T09:41:02.010Z,64.70
2019-01-12T09:43:03.940Z,64.40
2019-01-12T09:45:07.099Z,65.60
2019-01-12T09:47:08.814Z,64.90
2019-01-12T09:49:10.543Z,65.00
2019-01-12T09:51:12.264Z,64.70
2019-01-12T09:53:14.332Z,64.20
2019-01-12T09:55:16.362Z,63.20
2019-01-12T09:57:18.097Z,63.50
2019-01-12T09:59:19.803Z,63.20
2019-01-12T10:01:21.873Z,62.50
2019-01-12T10:03:23.642Z,62.70
2019-01-12T10:05:25.420Z,62.20
2019-01-12T10:07:27.538Z,63.10
2019-01-12T10:09:29.267Z,62.40
2019-01-12T10:11:31.111Z,62.30
2019-01-12T10:13:32.835Z,62.30
2019-01-12T10:15:34.588Z,62.00
2019-01-12T10:17:36.434Z,61.80
2019-01-12T10:19:38.610Z,61.70
2019-01-12T10:21:40.310Z,62.00
2019-01-12T10:23:42.028Z,61.50
2019-01-12T10:25:43.862Z,61.30
2019-01-12T10:27:45.797Z,61.40
2019-01-12T10:29:47.526Z,61.50
2019-01-12T10:31:49.287Z,61.00
2019-01-12T10:33:51.042Z,61.20
2019-01-12T10:35:52.890Z,60.90
2019-01-12T10:37:54.699Z,61.10
2019-01-12T10:39:56.525Z,60.80
2019-01-12T10:41:58.251Z,60.70
2019-01-12T10:43:59.962Z,60.50
2019-01-12T10:46:01.919Z,60.70
2019-01-12T10:48:03.941Z,60.50
2019-01-12T10:50:09.719Z,60.40
2019-01-12T10:52:11.536Z,60.40
2019-01-12T10:54:13.264Z,60.20
2019-01-12T10:56:15.086Z,60.10
2019-01-12T10:58:16.901Z,60.30
2019-01-12T11:00:21.776Z,60.20
2019-01-12T11:02:23.678Z,60.10
2019-01-12T11:04:25.430Z,60.10
2019-01-12T11:06:27.238Z,60.30
2019-01-12T11:08:29.057Z,60.10
2019-01-12T11:10:30.875Z,60.10
2019-01-12T11:12:32.794Z,60.00
2019-01-12T11:14:34.797Z,59.90
2019-01-12T11:16:36.624Z,59.90
2019-01-12T11:18:38.482Z,59.90
2019-01-12T11:20:40.402Z,59.90
2019-01-12T11:22:42.330Z,60.00
2019-01-12T11:24:44.092Z,59.80
2019-01-12T11:26:45.849Z,60.00
2019-01-12T11:28:47.688Z,59.80
2019-01-12T11:30:49.746Z,59.80
2019-01-12T11:32:51.710Z,59.60
2019-01-12T11:34:53.514Z,59.60
2019-01-12T11:36:55.615Z,59.80
2019-01-12T11:38:57.394Z,59.80
2019-01-12T11:40:59.122Z,59.50
2019-01-12T11:43:01.286Z,59.70
2019-01-12T11:45:04.242Z,59.60
2019-01-12T11:47:08.660Z,59.70
2019-01-12T11:49:10.503Z,59.60
2019-01-12T11:51:12.993Z,59.60
2019-01-12T11:53:14.946Z,59.60
2019-01-12T11:55:17.696Z,59.50
2019-01-12T11:57:19.454Z,59.50
2019-01-12T11:59:21.348Z,59.50
2019-01-12T12:01:23.087Z,59.50
2019-01-12T12:03:25.150Z,59.50
2019-01-12T12:05:27.362Z,59.50
2019-01-12T12:07:29.070Z,59.50
2019-01-12T12:09:30.826Z,59.50
2019-01-12T12:11:32.667Z,59.50
2019-01-12T12:13:34.585Z,59.40
2019-01-12T12:15:36.430Z,59.50
2019-01-12T12:17:38.388Z,59.40
2019-01-12T12:19:40.315Z,59.50
2019-01-12T12:21:42.395Z,59.50
2019-01-12T12:23:44.215Z,59.40
2019-01-12T12:25:45.934Z,59.50
2019-01-12T12:27:47.874Z,59.50
2019-01-12T12:29:49.602Z,59.50
2019-01-12T12:31:51.580Z,59.40
2019-01-12T12:33:53.301Z,59.50
2019-01-12T12:35:55.180Z,59.40
2019-01-12T12:37:57.063Z,59.40
2019-01-12T12:39:58.885Z,59.40
2019-01-12T12:42:00.642Z,59.40
2019-01-12T12:44:02.480Z,59.40
2019-01-12T12:46:04.495Z,59.30
2019-01-12T12:48:07.260Z,59.50
2019-01-12T12:50:13.266Z,59.40
2019-01-12T12:52:15.315Z,59.40
2019-01-12T12:54:17.260Z,59.40
2019-01-12T12:56:19.176Z,59.40
2019-01-12T12:58:20.911Z,59.40
2019-01-12T13:00:25.098Z,59.30
2019-01-12T13:02:27.070Z,59.30
2019-01-12T13:04:28.891Z,59.40
2019-01-12T13:06:30.826Z,59.40
2019-01-12T13:08:32.758Z,59.40
2019-01-12T13:10:34.682Z,59.20
2019-01-12T13:12:36.614Z,59.30
2019-01-12T13:14:38.468Z,59.20
2019-01-12T13:16:40.230Z,59.20
2019-01-12T13:18:42.142Z,59.20
2019-01-12T13:20:44.050Z,59.20
2019-01-12T13:22:46.010Z,59.20
2019-01-12T13:24:47.958Z,59.30
2019-01-12T13:26:49.722Z,59.20
2019-01-12T13:28:51.430Z,59.20
2019-01-12T13:30:53.153Z,59.10
2019-01-12T13:32:55.091Z,59.20
2019-01-12T13:34:56.815Z,59.30
2019-01-12T13:36:58.530Z,59.20
2019-01-12T13:39:00.390Z,59.30
2019-01-12T13:41:02.217Z,59.20
2019-01-12T13:43:04.098Z,59.20
2019-01-12T13:45:07.689Z,59.10
2019-01-12T13:47:09.811Z,59.10
2019-01-12T13:49:11.554Z,59.10
2019-01-12T13:51:13.549Z,59.10
2019-01-12T13:53:15.545Z,59.10
2019-01-12T13:55:17.714Z,59.10
2019-01-12T13:57:19.618Z,59.10
2019-01-12T13:59:21.583Z,59.10
2019-01-12T14:01:23.414Z,59.10
2019-01-12T14:03:25.250Z,59.20
2019-01-12T14:05:27.190Z,59.30
2019-01-12T14:07:29.134Z,59.40
2019-01-12T14:09:30.973Z,59.60
2019-01-12T14:11:32.711Z,59.70
2019-01-12T14:13:34.451Z,59.70
2019-01-12T14:15:36.675Z,59.80
2019-01-12T14:17:38.703Z,59.80
2019-01-12T14:19:40.432Z,59.90
2019-01-12T14:21:42.167Z,60.20
2019-01-12T14:23:43.889Z,60.30
2019-01-12T14:25:45.650Z,60.60
2019-01-12T14:27:54.239Z,60.80
2019-01-12T14:29:51.262Z,61.10
2019-01-12T14:31:53.219Z,61.00
2019-01-12T14:33:57.146Z,60.90
2019-01-12T14:35:58.890Z,61.00
2019-01-12T14:38:00.627Z,60.90
2019-01-12T14:40:03.354Z,60.90
2019-01-12T14:42:05.375Z,61.40
2019-01-12T14:44:07.443Z,61.10
2019-01-12T14:46:10.435Z,61.10
2019-01-12T14:48:12.293Z,61.10
2019-01-12T14:50:14.820Z,60.90
2019-01-12T14:52:16.656Z,60.90
2019-01-12T14:54:18.843Z,61.00
2019-01-12T14:56:20.842Z,61.20
2019-01-12T14:58:22.585Z,60.90
2019-01-12T15:00:26.614Z,61.00
2019-01-12T15:02:28.320Z,61.10
2019-01-12T15:04:30.244Z,61.30
2019-01-12T15:06:31.999Z,61.60
2019-01-12T15:08:33.744Z,61.40
2019-01-12T15:10:35.491Z,61.30
2019-01-12T15:12:37.563Z,61.70
2019-01-12T15:14:39.290Z,61.20
2019-01-12T15:16:41.032Z,61.60
2019-01-12T15:18:42.918Z,61.40
2019-01-12T15:20:45.790Z,61.90
2019-01-12T15:22:47.795Z,66.10
2019-01-12T15:24:49.923Z,63.90
2019-01-12T15:26:52.306Z,65.60
2019-01-12T15:28:54.154Z,67.10
2019-01-12T15:30:55.910Z,67.80
2019-01-12T15:32:59.618Z,67.00
2019-01-12T15:35:01.572Z,68.20
2019-01-12T15:37:03.456Z,67.40
2019-01-12T15:39:06.414Z,66.90
2019-01-12T15:41:08.139Z,67.70
2019-01-12T15:43:10.294Z,66.00
2019-01-12T15:45:14.684Z,65.80
2019-01-12T15:47:16.575Z,65.50
2019-01-12T15:49:18.313Z,64.90
2019-01-12T15:51:20.250Z,64.90
2019-01-12T15:53:22.358Z,64.60
2019-01-12T15:55:24.316Z,64.00
2019-01-12T15:57:28.966Z,63.30
2019-01-12T15:59:30.828Z,63.20
2019-01-12T16:01:32.794Z,63.30
2019-01-12T16:03:48.150Z,63.70
2019-01-12T16:05:49.894Z,63.50
2019-01-12T16:07:51.625Z,63.10
2019-01-12T16:09:53.567Z,63.60
2019-01-12T16:11:55.290Z,64.30
2019-01-12T16:13:57.008Z,64.50
2019-01-12T16:15:58.795Z,63.80
2019-01-12T16:18:00.510Z,64.10
2019-01-12T16:20:02.874Z,63.90
2019-01-12T16:22:06.583Z,63.50
2019-01-12T16:24:08.383Z,63.20
2019-01-12T16:26:10.138Z,63.50
2019-01-12T16:28:11.982Z,64.20
2019-01-12T16:30:17.386Z,64.40
2019-01-12T16:32:19.503Z,64.20
2019-01-12T16:34:21.471Z,63.30
2019-01-12T16:36:23.193Z,63.20
2019-01-12T16:38:24.922Z,64.70
2019-01-12T16:40:27.051Z,64.90
2019-01-12T16:42:28.819Z,65.10
2019-01-12T16:44:30.668Z,65.50
2019-01-12T16:46:32.453Z,65.90
2019-01-12T16:48:34.306Z,65.40
2019-01-12T16:50:36.118Z,65.40
2019-01-12T16:52:38.014Z,65.50
2019-01-12T16:54:39.858Z,65.30
2019-01-12T16:56:44.195Z,64.80
2019-01-12T16:58:47.911Z,64.00
2019-01-12T17:00:49.658Z,64.00
2019-01-12T17:02:51.681Z,63.60
2019-01-12T17:04:55.509Z,63.20
2019-01-12T17:06:57.239Z,64.00
2019-01-12T17:08:59.007Z,63.90
2019-01-12T17:11:00.870Z,64.30
2019-01-12T17:13:02.921Z,64.30
2019-01-12T17:15:06.712Z,63.90
2019-01-12T17:17:08.727Z,63.50
2019-01-12T17:19:10.646Z,63.70
2019-01-12T17:21:12.516Z,63.50
2019-01-12T17:23:14.346Z,63.20
2019-01-12T17:25:16.239Z,63.30
2019-01-12T17:27:17.956Z,63.40
2019-01-12T17:29:19.683Z,64.40
2019-01-12T17:31:21.715Z,67.00
2019-01-12T17:33:23.550Z,68.30
2019-01-12T17:35:25.727Z,68.60
2019-01-12T17:37:27.470Z,68.20
2019-01-12T17:39:31.154Z,68.20
2019-01-12T17:41:32.879Z,67.90
2019-01-12T17:43:57.509Z,67.40
2019-01-12T17:45:59.508Z,66.80
2019-01-12T17:48:01.240Z,65.70
2019-01-12T17:50:05.016Z,65.30
2019-01-12T17:52:06.742Z,64.50
2019-01-12T17:54:08.463Z,63.70
2019-01-12T17:56:10.335Z,63.30
2019-01-12T17:58:12.044Z,63.10
2019-01-12T18:00:19.187Z,62.20
2019-01-12T18:02:20.911Z,62.00
2019-01-12T18:04:22.631Z,61.90
2019-01-12T18:06:24.693Z,61.90
2019-01-12T18:08:26.516Z,61.80
2019-01-12T18:10:28.231Z,61.90
2019-01-12T18:12:29.967Z,61.90
2019-01-12T18:14:31.686Z,62.00
2019-01-12T18:16:33.742Z,62.10
2019-01-12T18:18:35.675Z,62.60
2019-01-12T18:20:37.591Z,62.50
2019-01-12T18:22:39.630Z,62.50
2019-01-12T18:24:41.358Z,62.10
2019-01-12T18:26:43.076Z,62.00
2019-01-12T18:28:51.479Z,61.60
2019-01-12T18:30:49.771Z,61.90
2019-01-12T18:32:51.743Z,62.50
2019-01-12T18:34:53.478Z,62.40
2019-01-12T18:36:55.195Z,62.20
2019-01-12T18:38:56.951Z,62.10
2019-01-12T18:40:58.673Z,61.80
2019-01-12T18:43:00.509Z,62.00
2019-01-12T18:45:02.758Z,62.00
2019-01-12T18:47:04.468Z,61.90
2019-01-12T18:49:06.219Z,62.10
2019-01-12T18:51:08.163Z,62.10
2019-01-12T18:53:09.997Z,62.30
2019-01-12T18:55:12.070Z,62.30
2019-01-12T18:57:13.855Z,63.00
2019-01-12T18:59:15.565Z,62.90
2019-01-12T19:01:17.295Z,62.70
2019-01-12T19:03:19.027Z,63.10
2019-01-12T19:05:21.149Z,63.00
2019-01-12T19:07:23.674Z,63.70
2019-01-12T19:09:25.408Z,63.70
2019-01-12T19:11:27.144Z,63.40
2019-01-12T19:13:28.860Z,63.70
2019-01-12T19:15:31.294Z,63.90
2019-01-12T19:17:33.003Z,63.40
2019-01-12T19:19:34.739Z,63.30
2019-01-12T19:21:36.807Z,63.30
2019-01-12T19:23:38.515Z,63.30
2019-01-12T19:25:40.251Z,63.70
2019-01-12T19:27:42.086Z,63.10
2019-01-12T19:29:43.816Z,63.10
2019-01-12T19:31:45.556Z,62.90
2019-01-12T19:33:47.372Z,62.80
2019-01-12T19:35:49.075Z,62.60
2019-01-12T19:37:50.789Z,62.30
2019-01-12T19:39:52.521Z,62.10
2019-01-12T19:41:54.331Z,62.30
2019-01-12T19:43:56.288Z,62.80
2019-01-12T19:45:58.014Z,63.20
2019-01-12T19:48:01.633Z,63.00
2019-01-12T19:50:04.866Z,62.90
2019-01-12T19:52:06.578Z,63.20
2019-01-12T19:54:08.427Z,63.10
2019-01-12T19:56:10.269Z,62.70
2019-01-12T19:58:11.979Z,63.50
2019-01-12T20:00:15.775Z,63.70
2019-01-12T20:02:17.745Z,63.70
2019-01-12T20:04:19.565Z,63.60
2019-01-12T20:06:21.307Z,63.50
2019-01-12T20:08:23.015Z,64.20
2019-01-12T20:10:25.358Z,63.70
2019-01-12T20:12:27.559Z,63.50
2019-01-12T20:14:29.274Z,63.20
2019-01-12T20:16:31.086Z,63.20
2019-01-12T20:18:33.027Z,63.10
2019-01-12T20:20:34.774Z,62.80
2019-01-12T20:22:36.594Z,62.70
2019-01-12T20:24:38.358Z,62.70
2019-01-12T20:26:40.575Z,63.10
2019-01-12T20:28:42.311Z,63.20
2019-01-12T20:31:12.171Z,63.30
2019-01-12T20:33:41.834Z,63.90
2019-01-12T20:36:25.649Z,63.90
2019-01-12T20:38:39.225Z,64.30
2019-01-12T20:41:32.575Z,65.60
2019-01-12T20:44:13.988Z,65.40
2019-01-12T20:47:02.824Z,66.50
2019-01-12T20:49:21.984Z,66.50
2019-01-12T20:52:09.464Z,67.90
2019-01-12T20:54:56.140Z,69.40
2019-01-12T20:57:18.854Z,68.60
2019-01-12T20:59:31.391Z,72.00
2019-01-12T21:02:21.359Z,70.60
2019-01-12T21:04:54.437Z,69.00
2019-01-12T21:07:06.254Z,70.30
2019-01-12T21:10:02.324Z,70.20
2019-01-12T21:13:04.799Z,70.20
2019-01-12T21:15:16.740Z,69.00
2019-01-12T21:17:18.851Z,67.80
2019-01-12T21:19:20.567Z,67.30
2019-01-12T21:21:22.543Z,67.50
2019-01-12T21:23:24.696Z,66.70
2019-01-12T21:25:26.568Z,66.10
2019-01-12T21:27:28.684Z,66.30
2019-01-12T21:29:35.085Z,65.70
2019-01-12T21:31:34.624Z,65.90
2019-01-12T21:33:36.469Z,66.00
2019-01-12T21:35:38.643Z,67.50
2019-01-12T21:37:40.475Z,67.70
2019-01-12T21:39:42.234Z,67.90
2019-01-12T21:41:51.302Z,68.10
2019-01-12T21:43:53.251Z,67.90
2019-01-12T21:45:55.352Z,68.10
2019-01-12T21:47:57.219Z,68.20
2019-01-12T21:49:59.083Z,68.20
2019-01-12T21:52:00.983Z,68.50
2019-01-12T21:54:03.356Z,68.70
2019-01-12T21:56:05.220Z,68.90
2019-01-12T21:58:07.083Z,69.50
2019-01-12T22:00:12.227Z,69.30
2019-01-12T22:02:14.151Z,69.20
2019-01-12T22:04:15.975Z,68.90
2019-01-12T22:06:18.057Z,69.20
2019-01-12T22:08:19.781Z,68.90
2019-01-12T22:10:21.516Z,69.10
2019-01-12T22:12:23.646Z,68.90
2019-01-12T22:14:25.634Z,69.00
2019-01-12T22:16:27.402Z,68.20
2019-01-12T22:18:29.303Z,68.20
2019-01-12T22:20:31.229Z,68.20
2019-01-12T22:22:33.151Z,68.20
2019-01-12T22:24:34.879Z,68.40
2019-01-12T22:26:36.619Z,68.30
2019-01-12T22:28:41.699Z,68.30
2019-01-12T22:30:49.651Z,68.50
2019-01-12T22:32:51.591Z,68.30
2019-01-12T22:35:05.291Z,68.50
2019-01-12T22:37:07.428Z,68.60
2019-01-12T22:39:09.614Z,68.70
2019-01-12T22:41:11.652Z,69.20
2019-01-12T22:43:13.710Z,69.10
2019-01-12T22:45:42.578Z,69.50
2019-01-12T22:47:46.131Z,68.50
2019-01-12T22:49:51.049Z,68.20
2019-01-12T22:51:52.762Z,68.10
2019-01-12T22:53:54.583Z,67.80
2019-01-12T22:55:56.396Z,67.40
2019-01-12T22:57:58.150Z,67.00
2019-01-12T22:59:59.969Z,66.80
2019-01-12T23:02:05.297Z,66.10
2019-01-12T23:04:07.427Z,66.00
2019-01-12T23:06:09.151Z,65.50
2019-01-12T23:08:10.979Z,65.00
2019-01-12T23:10:12.814Z,64.80
2019-01-12T23:12:14.826Z,64.20
2019-01-12T23:14:16.743Z,64.30
2019-01-12T23:16:18.702Z,64.10
2019-01-12T23:18:20.505Z,63.80
2019-01-12T23:20:22.228Z,63.80
2019-01-12T23:22:24.223Z,63.40
2019-01-12T23:24:26.310Z,63.20
2019-01-12T23:26:28.130Z,63.20
2019-01-12T23:28:29.870Z,62.90
2019-01-12T23:30:31.687Z,62.90
2019-01-12T23:32:33.527Z,62.70
2019-01-12T23:34:35.290Z,63.20
2019-01-12T23:36:37.215Z,62.90
2019-01-12T23:38:39.159Z,62.80
2019-01-12T23:40:41.270Z,62.90
2019-01-12T23:42:43.197Z,62.70
2019-01-12T23:44:44.999Z,62.70
2019-01-12T23:46:46.735Z,62.50
2019-01-12T23:48:48.450Z,62.60
2019-01-12T23:50:50.348Z,62.70
2019-01-12T23:52:52.346Z,63.20
2019-01-12T23:54:54.073Z,62.90
2019-01-12T23:56:56.040Z,62.80
2019-01-12T23:58:57.784Z,62.90
